• Join FlightAware (Why Join?)
  • Login
  • US Flag 
10:12AM EST


 

Airport Tracker/Info


-or-


 

Live Flight TrackerFlight Track Log ✈ CSN6455 ✈ 07-Jul-2013 ✈ ZYTX / SHE - ZBOW / BAV

Flight Track Log - Related Links

Times and Time Zones

All times are in EDT time to prevent confusion due to time zone crossing. See the CSN6455 flight status page for this flight to view local times or setup timezone preferences in your user account.

Time Position Orientation Groundspeed Altitude Reporting Facility
EDT Latitude Longitude Course Direction KTS MPH feet Rate Location/Type
08:02PM 41.6363 123.3169 268° West  Level Estimated
08:03PM 41.6324 123.1505 268° West  Level Estimated
08:04PM 41.6284 122.9840 268° West  Level Estimated
08:05PM 41.6241 122.8176 268° West  Level Estimated
08:06PM 41.6195 122.6512 268° West  Level Estimated
08:07PM 41.6148 122.4848 268° West  Level Estimated
08:08PM 41.6097 122.3185 268° West  Level Estimated
08:09PM 41.6045 122.1521 268° West  Level Estimated
08:10PM 41.5990 121.9858 268° West  Level Estimated
08:11PM 41.5932 121.8196 267° West  Level Estimated
08:12PM 41.5873 121.6533 267° West  Level Estimated
08:13PM 41.5810 121.4871 267° West  Level Estimated
08:14PM 41.5746 121.3209 267° West  Level Estimated
08:15PM 41.5679 121.1548 267° West  Level Estimated
08:16PM 41.5609 120.9887 267° West  Level Estimated
08:17PM 41.5538 120.8226 267° West  Level Estimated
08:18PM 41.5464 120.6566 267° West  Level Estimated
08:19PM 41.5387 120.4906 267° West  Level Estimated
08:20PM 41.5308 120.3246 266° West  Level Estimated
08:21PM 41.5227 120.1587 266° West  Level Estimated
08:22PM 41.5143 119.9928 266° West  Level Estimated
08:23PM 41.5057 119.8270 266° West  Level Estimated
08:24PM 41.4969 119.6612 266° West  Level Estimated
08:25PM 41.4878 119.4955 266° West  Level Estimated
08:26PM 41.4785 119.3298 266° West  Level Estimated
08:27PM 41.4689 119.1642 266° West  Level Estimated
08:28PM 41.4591 118.9986 266° West  Level Estimated
08:29PM 41.4491 118.8330 265° West  Level Estimated
08:30PM 41.4388 118.6675 265° West  Level Estimated
08:31PM 41.4283 118.5021 265° West  Level Estimated
08:32PM 41.4176 118.3367 265° West  Level Estimated
08:33PM 41.4066 118.1714 265° West  Level Estimated
08:34PM 41.3954 118.0061 265° West  Level Estimated
08:35PM 41.3839 117.8409 265° West  Level Estimated
08:36PM 41.3722 117.6758 265° West  Level Estimated
08:37PM 41.3603 117.5107 265° West  Level Estimated
08:38PM 41.3481 117.3456 264° West  Level Estimated
08:39PM 41.3357 117.1806 264° West  Level Estimated
08:40PM 41.3231 117.0157 264° West  Level Estimated
08:41PM 41.3102 116.8509 264° West  Level Estimated
08:42PM 41.2971 116.6861 264° West  Level Estimated
08:43PM 41.2838 116.5214 264° West  Level Estimated
08:44PM 41.2702 116.3568 264° West  Level Estimated
08:45PM 41.2564 116.1922 264° West  Level Estimated
08:46PM 41.2424 116.0277 264° West  Level Estimated
08:47PM 41.2281 115.8633 263° West  Level Estimated
08:48PM 41.2136 115.6989 263° West  Level Estimated
08:49PM 41.1989 115.5346 263° West  Level Estimated
08:50PM 41.1839 115.3704 263° West  Level Estimated
08:51PM 41.1687 115.2063 263° West  Level Estimated
08:52PM 41.1532 115.0422 263° West  Level Estimated
08:53PM 41.1376 114.8782 263° West  Level Estimated
08:54PM 41.1217 114.7143 263° West  Level Estimated
08:55PM 41.1055 114.5505 263° West  Level Estimated
08:56PM 41.0891 114.3867 262° West  Level Estimated
08:57PM 41.0725 114.2231 262° West  Level Estimated
08:58PM 41.0583 114.0848 262° West  Level Estimated
08:59PM 41.0439 113.9466 262° West  Level Estimated
09:00PM 41.0294 113.8084 262° West  Level Estimated
09:01PM 41.0147 113.6703 262° West  Level Estimated
09:02PM 40.9998 113.5322 262° West  Level Estimated
09:03PM 40.9848 113.3943 262° West  Level Estimated
09:04PM 40.9696 113.2563 262° West  Level Estimated
09:05PM 40.9542 113.1185 262° West  Level Estimated
09:06PM 40.9387 112.9807 262° West  Level Estimated
09:07PM 40.9230 112.8430 261° West  Level Estimated
09:08PM 40.9071 112.7053 261° West  Level Estimated
09:09PM 40.8911 112.5677 261° West  Level Estimated
09:10PM 40.8749 112.4302 261° West  Level Estimated
09:11PM 40.8585 112.2927 261° West  Level Estimated
09:12PM 40.8420 112.1554 261° West  Level Estimated
09:13PM 40.8254 112.0180 261° West  Level Estimated
09:14PM 40.8085 111.8808 261° West  Level Estimated
09:15PM 40.7915 111.7436 261° West  Level Estimated
09:16PM 40.7743 111.6065 261° West  Level Estimated
09:17PM 40.7570 111.4695 261° West  Level Estimated
09:18PM 40.7395 111.3325 260° West  Level Estimated
09:19PM 40.7219 111.1956 260° West  Level Estimated
09:20PM 40.7041 111.0588 260° West  Level Estimated
09:21PM 40.6861 110.9220 260° West  Level Estimated
09:22PM 40.6680 110.7853 260° West  Level Estimated
09:23PM 40.6497 110.6488 260° West  Level Estimated
09:24PM 40.6312 110.5122 260° West  Level Estimated
09:25PM 40.6126 110.3758 260° West  Level Estimated
09:26PM 40.5938 110.2394 260° West  Level Estimated
09:27PM 40.5749 110.1031 260° West  Level Estimated
09:28PM 40.5600 109.9969 260° West  Level Estimated
09:29PM 40.5600 109.9969 108° East  Level Estimated
09:30PM 40.5600 109.9969 108° East  Level Estimated
09:31PM 40.5600 109.9969 108° East  Level Estimated
09:32PM 40.5600 109.9969 108° East  Level Estimated
09:33PM 40.5600 109.9969 108° East  Level Estimated
09:34PM 40.5600 109.9969 108° East  Level Estimated
09:35PM 40.5600 109.9969 108° East  Level Estimated
09:36PM 40.5600 109.9969 108° East  Level Estimated
09:37PM 40.5600 109.9969 108° East  Level Estimated